createdAt,value
2022-12-07T00:00:12.255Z,0.00
2022-12-07T00:01:12.260Z,0.00
2022-12-07T00:02:12.304Z,0.00
2022-12-07T00:03:12.281Z,0.00
2022-12-07T00:04:12.214Z,0.00
2022-12-07T00:05:12.215Z,0.00
2022-12-07T00:06:12.188Z,0.00
2022-12-07T00:07:12.280Z,0.00
2022-12-07T00:08:12.222Z,0.00
2022-12-07T00:09:12.191Z,0.00
2022-12-07T00:10:12.149Z,0.00
2022-12-07T00:11:12.152Z,0.00
2022-12-07T00:12:12.132Z,0.00
2022-12-07T00:13:12.143Z,0.00
2022-12-07T00:14:12.117Z,0.00
2022-12-07T00:15:12.124Z,0.00
2022-12-07T00:16:12.110Z,0.00
2022-12-07T00:17:12.093Z,0.00
2022-12-07T00:18:12.085Z,0.00
2022-12-07T00:19:18.093Z,0.00
2022-12-07T00:20:12.043Z,0.00
2022-12-07T00:21:12.040Z,0.00
2022-12-07T00:22:12.021Z,0.00
2022-12-07T00:23:12.018Z,0.00
2022-12-07T00:24:12.015Z,0.00
2022-12-07T00:25:12.022Z,0.00
2022-12-07T00:26:11.978Z,0.00
2022-12-07T00:27:11.993Z,0.00
2022-12-07T00:28:11.969Z,0.00
2022-12-07T00:29:11.979Z,0.00
2022-12-07T00:30:11.977Z,0.00
2022-12-07T00:31:12.035Z,0.00
2022-12-07T00:32:12.030Z,0.00
2022-12-07T00:33:11.923Z,0.00
2022-12-07T00:34:11.900Z,0.00
2022-12-07T00:35:11.909Z,0.00
2022-12-07T00:36:11.900Z,0.00
2022-12-07T00:37:11.912Z,0.00
2022-12-07T00:38:11.850Z,0.00
2022-12-07T00:39:11.863Z,0.00
2022-12-07T00:40:11.890Z,0.00
2022-12-07T00:41:11.860Z,0.00
2022-12-07T00:42:11.849Z,0.00
2022-12-07T00:43:11.818Z,0.00
2022-12-07T00:44:11.787Z,0.00
2022-12-07T00:45:11.795Z,0.00
2022-12-07T00:46:11.859Z,0.00
2022-12-07T00:47:11.772Z,0.00
2022-12-07T00:48:11.780Z,0.00
2022-12-07T00:49:11.795Z,0.00
2022-12-07T00:50:11.735Z,0.00
2022-12-07T00:51:11.752Z,0.00
2022-12-07T00:52:11.719Z,0.00
2022-12-07T00:53:11.704Z,0.00
2022-12-07T00:54:11.714Z,0.00
2022-12-07T00:55:11.718Z,0.00
2022-12-07T00:56:11.667Z,0.00
2022-12-07T00:57:11.664Z,0.00
2022-12-07T00:58:11.675Z,0.00
2022-12-07T00:59:11.661Z,0.00
2022-12-07T01:00:11.645Z,0.00
2022-12-07T01:01:11.689Z,0.00
2022-12-07T01:02:11.602Z,0.00
2022-12-07T01:03:11.647Z,0.00
2022-12-07T01:04:11.589Z,0.00
2022-12-07T01:05:11.586Z,0.00
2022-12-07T01:06:11.588Z,0.00
2022-12-07T01:07:11.565Z,0.00
2022-12-07T01:08:11.636Z,0.00
2022-12-07T01:09:11.549Z,0.00
2022-12-07T01:10:11.524Z,0.00
2022-12-07T01:11:11.567Z,0.00
2022-12-07T01:12:11.500Z,0.00
2022-12-07T01:13:11.505Z,0.00
2022-12-07T01:14:11.483Z,0.00
2022-12-07T01:15:11.486Z,0.00
2022-12-07T01:16:11.507Z,0.00
2022-12-07T01:17:11.609Z,0.00
2022-12-07T01:18:11.439Z,0.00
2022-12-07T01:19:11.449Z,0.00
2022-12-07T01:20:11.446Z,0.00
2022-12-07T01:21:11.438Z,0.00
2022-12-07T01:22:11.443Z,0.00
2022-12-07T01:23:11.400Z,0.00
2022-12-07T01:24:11.406Z,0.00
2022-12-07T01:25:11.378Z,0.00
2022-12-07T01:26:11.356Z,0.00
2022-12-07T01:27:11.380Z,0.00
2022-12-07T01:28:11.359Z,0.00
2022-12-07T01:29:11.334Z,0.00
2022-12-07T01:30:11.313Z,0.00
2022-12-07T01:31:11.435Z,0.00
2022-12-07T01:32:11.321Z,0.00
2022-12-07T01:33:11.303Z,0.00
2022-12-07T01:34:11.283Z,0.00
2022-12-07T01:35:11.282Z,0.00
2022-12-07T01:36:11.266Z,0.00
2022-12-07T01:37:11.256Z,0.00
2022-12-07T01:38:11.258Z,0.00
2022-12-07T01:39:11.236Z,0.00
2022-12-07T01:40:11.270Z,0.00
2022-12-07T01:41:11.229Z,0.00
2022-12-07T01:42:11.211Z,0.00
2022-12-07T01:43:11.217Z,0.00
2022-12-07T01:44:11.209Z,0.00
2022-12-07T01:45:11.192Z,0.00
2022-12-07T01:46:11.188Z,0.00
2022-12-07T01:47:11.145Z,0.00
2022-12-07T01:48:11.154Z,0.00
2022-12-07T01:49:11.133Z,0.00
2022-12-07T01:50:11.128Z,0.00
2022-12-07T01:51:11.113Z,0.00
2022-12-07T01:52:11.115Z,0.00
2022-12-07T01:53:11.108Z,0.00
2022-12-07T01:54:11.086Z,0.00
2022-12-07T01:55:11.087Z,0.00
2022-12-07T01:56:11.122Z,0.00
2022-12-07T01:57:11.079Z,0.00
2022-12-07T01:58:11.043Z,0.00
2022-12-07T01:59:11.037Z,0.00
2022-12-07T02:00:11.048Z,0.00
2022-12-07T02:01:11.057Z,0.00
2022-12-07T02:02:11.060Z,0.00
2022-12-07T02:03:10.974Z,0.00
2022-12-07T02:04:11.018Z,0.00
2022-12-07T02:05:10.973Z,0.00
2022-12-07T02:06:10.979Z,0.00
2022-12-07T02:07:10.953Z,0.00
2022-12-07T02:08:10.992Z,0.00
2022-12-07T02:09:10.926Z,0.00
2022-12-07T06:00:51.421Z,0.00
2022-12-07T06:01:51.300Z,0.00
2022-12-07T06:02:51.157Z,0.00
2022-12-07T06:03:50.963Z,0.00
2022-12-07T06:04:50.948Z,0.00
2022-12-07T06:05:51.081Z,0.00
2022-12-07T06:06:50.966Z,0.00
2022-12-07T06:07:51.033Z,0.00
2022-12-07T06:08:50.912Z,0.00
2022-12-07T06:09:50.912Z,0.00
2022-12-07T06:10:50.889Z,0.00
2022-12-07T06:11:50.900Z,0.00
2022-12-07T06:12:50.898Z,0.00
2022-12-07T06:13:50.870Z,0.00
2022-12-07T06:14:50.856Z,0.00
2022-12-07T06:15:56.895Z,0.00
2022-12-07T06:16:50.945Z,0.00
2022-12-07T06:17:50.829Z,0.00
2022-12-07T06:18:50.879Z,0.00
2022-12-07T06:19:50.805Z,0.00
2022-12-07T06:20:50.784Z,0.00
2022-12-07T06:21:50.798Z,0.00
2022-12-07T06:22:50.761Z,0.00
2022-12-07T06:23:50.781Z,0.00
2022-12-07T06:24:50.759Z,0.00
2022-12-07T06:25:50.778Z,0.00
2022-12-07T06:26:50.723Z,0.00
2022-12-07T06:27:50.741Z,0.00
2022-12-07T06:28:50.699Z,0.00
2022-12-07T06:29:50.717Z,0.00
2022-12-07T06:30:50.848Z,0.00
2022-12-07T06:31:50.731Z,0.00
2022-12-07T06:32:50.657Z,0.00
2022-12-07T06:33:50.681Z,0.00
2022-12-07T06:34:50.681Z,0.00
2022-12-07T06:35:50.657Z,0.00
2022-12-07T06:36:50.639Z,0.00
2022-12-07T06:37:50.637Z,0.00
2022-12-07T06:38:50.551Z,1.00
2022-12-07T06:39:50.554Z,1.00
2022-12-07T06:40:50.537Z,1.00
2022-12-07T06:41:50.573Z,1.00
2022-12-07T06:42:50.552Z,0.00
2022-12-07T06:43:55.817Z,0.00
2022-12-07T06:44:50.499Z,2.00
2022-12-07T06:45:50.563Z,1.00
2022-12-07T06:46:50.471Z,1.00
2022-12-07T06:47:50.507Z,2.00
2022-12-07T06:48:50.493Z,2.00
2022-12-07T06:49:50.476Z,1.00
2022-12-07T06:50:54.644Z,1.00
2022-12-07T06:51:50.503Z,1.00
2022-12-07T06:52:50.407Z,3.00
2022-12-07T06:53:50.432Z,3.00
2022-12-07T06:54:50.373Z,7.00
2022-12-07T06:55:50.383Z,6.00
2022-12-07T06:56:50.360Z,4.00
2022-12-07T06:57:50.366Z,6.00
2022-12-07T06:58:50.356Z,12.00
2022-12-07T06:59:50.338Z,11.00
2022-12-07T07:00:50.361Z,11.00
2022-12-07T07:01:50.371Z,13.00
2022-12-07T07:02:50.388Z,17.00
2022-12-07T07:03:50.315Z,17.00
2022-12-07T07:04:50.299Z,19.00
2022-12-07T07:05:50.308Z,22.00
2022-12-07T07:06:52.936Z,26.00
2022-12-07T07:08:20.958Z,29.00
2022-12-07T07:08:50.331Z,35.00
2022-12-07T07:09:50.248Z,41.00
2022-12-07T07:10:50.218Z,46.00
2022-12-07T07:11:50.248Z,46.00
2022-12-07T07:12:55.695Z,45.00
2022-12-07T07:13:50.195Z,45.00
2022-12-07T07:14:50.185Z,46.00
2022-12-07T07:15:50.172Z,56.00
2022-12-07T07:16:50.233Z,62.00
2022-12-07T07:17:50.150Z,66.00
2022-12-07T07:18:50.139Z,68.00
2022-12-07T07:19:50.137Z,65.00
2022-12-07T07:20:50.112Z,66.00
2022-12-07T07:21:50.115Z,65.00
2022-12-07T07:22:50.122Z,65.00
2022-12-07T07:23:50.095Z,62.00
2022-12-07T07:24:50.081Z,58.00
2022-12-07T07:25:50.087Z,50.00
2022-12-07T07:26:50.070Z,49.00
2022-12-07T07:27:50.094Z,50.00
2022-12-07T07:28:50.027Z,53.00
2022-12-07T07:29:50.039Z,60.00
2022-12-07T07:30:50.065Z,69.00
2022-12-07T07:31:50.020Z,74.00
2022-12-07T07:32:50.024Z,96.00
2022-12-07T07:33:50.001Z,113.00
2022-12-07T07:34:49.974Z,112.00
2022-12-07T07:35:49.997Z,107.00
2022-12-07T07:36:49.985Z,109.00
2022-12-07T07:37:49.966Z,112.00
2022-12-07T07:38:49.956Z,117.00
2022-12-07T07:39:49.938Z,126.00
2022-12-07T07:40:49.913Z,135.00
2022-12-07T07:41:49.936Z,138.00
2022-12-07T07:42:49.880Z,145.00
2022-12-07T07:43:49.893Z,157.00
2022-12-07T07:44:49.896Z,164.00
2022-12-07T07:45:49.899Z,177.00
2022-12-07T07:46:49.843Z,173.00
2022-12-07T07:47:49.854Z,172.00
2022-12-07T07:48:49.833Z,174.00
2022-12-07T07:49:49.833Z,174.00
2022-12-07T07:50:49.829Z,175.00
2022-12-07T07:51:49.868Z,180.00
2022-12-07T07:52:49.809Z,190.00
2022-12-07T07:53:49.789Z,202.00
2022-12-07T07:54:49.784Z,224.00
2022-12-07T07:55:49.806Z,242.00
2022-12-07T07:56:49.734Z,250.00
2022-12-07T07:57:54.420Z,255.00
2022-12-07T07:58:49.721Z,264.00
2022-12-07T07:59:49.755Z,258.00
2022-12-07T08:00:49.697Z,297.00
2022-12-07T08:01:49.805Z,283.00
2022-12-07T08:02:49.674Z,274.00
2022-12-07T08:03:49.676Z,266.00
2022-12-07T08:04:49.749Z,274.00
2022-12-07T08:05:49.664Z,286.00
2022-12-07T08:06:49.658Z,273.00
2022-12-07T08:07:49.763Z,247.00
2022-12-07T08:08:49.656Z,238.00
2022-12-07T08:09:49.615Z,238.00
2022-12-07T08:10:49.585Z,240.00
2022-12-07T08:11:49.594Z,249.00
2022-12-07T08:12:49.573Z,255.00
2022-12-07T08:13:49.622Z,261.00
2022-12-07T08:14:49.549Z,259.00
2022-12-07T08:15:49.625Z,263.00
2022-12-07T08:16:49.524Z,268.00
2022-12-07T08:17:49.539Z,262.00
2022-12-07T08:18:49.517Z,259.00
2022-12-07T08:19:49.529Z,261.00
2022-12-07T08:20:49.502Z,266.00
2022-12-07T08:21:49.493Z,264.00
2022-12-07T08:22:49.471Z,271.00
2022-12-07T08:23:49.496Z,285.00
2022-12-07T08:24:49.469Z,305.00
2022-12-07T08:25:49.468Z,333.00
2022-12-07T08:26:49.433Z,355.00
2022-12-07T08:27:49.446Z,372.00
2022-12-07T08:28:49.429Z,387.00
2022-12-07T08:29:49.412Z,396.00
2022-12-07T08:30:49.452Z,412.00
2022-12-07T08:31:49.424Z,421.00
2022-12-07T08:32:49.363Z,435.00
2022-12-07T08:33:49.373Z,404.00
2022-12-07T08:34:49.374Z,382.00
2022-12-07T08:35:49.354Z,357.00
2022-12-07T08:36:49.318Z,465.00
2022-12-07T08:37:49.332Z,421.00
2022-12-07T08:39:22.410Z,399.00
2022-12-07T08:39:49.337Z,376.00
2022-12-07T08:40:49.316Z,490.00
2022-12-07T08:41:49.291Z,493.00
2022-12-07T08:42:49.255Z,462.00
2022-12-07T08:43:49.320Z,476.00
2022-12-07T08:44:49.297Z,464.00
2022-12-07T08:45:49.238Z,447.00
2022-12-07T08:46:49.330Z,449.00
2022-12-07T08:47:49.214Z,428.00
2022-12-07T08:48:49.210Z,394.00
2022-12-07T08:49:49.188Z,375.00
2022-12-07T08:50:49.917Z,364.00
2022-12-07T08:51:49.182Z,358.00
2022-12-07T08:52:49.167Z,350.00
2022-12-07T08:53:49.136Z,349.00
2022-12-07T08:54:49.161Z,341.00
2022-12-07T08:55:49.150Z,336.00
2022-12-07T08:56:52.917Z,335.00
2022-12-07T08:57:49.113Z,336.00
2022-12-07T08:58:49.107Z,335.00
2022-12-07T08:59:49.097Z,338.00
2022-12-07T09:00:49.106Z,342.00
2022-12-07T09:01:49.269Z,346.00
2022-12-07T09:02:49.119Z,353.00
2022-12-07T09:03:49.039Z,355.00
2022-12-07T09:04:49.057Z,362.00
2022-12-07T09:05:49.088Z,364.00
2022-12-07T09:06:49.215Z,368.00
2022-12-07T09:07:49.088Z,370.00
2022-12-07T09:08:49.001Z,378.00
2022-12-07T09:09:48.987Z,378.00
2022-12-07T09:10:48.972Z,377.00
2022-12-07T09:11:48.970Z,378.00
2022-12-07T09:12:48.970Z,380.00
2022-12-07T09:13:48.952Z,386.00
2022-12-07T09:14:48.955Z,386.00
2022-12-07T09:15:49.011Z,387.00
2022-12-07T09:16:48.924Z,386.00
2022-12-07T09:17:48.903Z,388.00
2022-12-07T09:18:48.898Z,389.00
2022-12-07T09:19:48.885Z,389.00
2022-12-07T09:20:48.866Z,386.00
2022-12-07T09:21:48.883Z,387.00
2022-12-07T09:22:48.856Z,389.00
2022-12-07T09:23:48.834Z,396.00
2022-12-07T09:24:48.842Z,398.00
2022-12-07T09:25:48.810Z,410.00
2022-12-07T09:26:48.819Z,422.00
2022-12-07T09:27:48.835Z,436.00
2022-12-07T09:28:48.783Z,445.00
2022-12-07T09:29:48.773Z,454.00
2022-12-07T09:31:21.481Z,453.00
2022-12-07T09:31:48.774Z,451.00
2022-12-07T09:32:48.760Z,451.00
2022-12-07T09:33:48.798Z,445.00
2022-12-07T09:34:48.809Z,431.00
2022-12-07T09:35:48.713Z,440.00
2022-12-07T09:36:48.738Z,449.00
2022-12-07T09:37:48.683Z,429.00
2022-12-07T09:38:48.679Z,409.00
2022-12-07T09:39:50.541Z,404.00
2022-12-07T09:40:48.665Z,402.00
2022-12-07T09:41:48.644Z,411.00
2022-12-07T09:42:48.675Z,423.00
2022-12-07T09:43:48.617Z,428.00
2022-12-07T09:44:48.625Z,429.00
2022-12-07T09:45:48.888Z,431.00
2022-12-07T09:46:48.647Z,436.00
2022-12-07T09:47:48.706Z,440.00
2022-12-07T09:48:48.603Z,438.00
2022-12-07T09:49:48.562Z,441.00
2022-12-07T09:50:48.666Z,451.00
2022-12-07T09:51:48.534Z,453.00
2022-12-07T09:52:48.543Z,442.00
2022-12-07T09:53:48.526Z,441.00
2022-12-07T09:54:48.532Z,445.00
2022-12-07T09:55:48.488Z,428.00
2022-12-07T09:56:48.523Z,436.00
2022-12-07T09:57:48.473Z,447.00
2022-12-07T09:58:48.487Z,451.00
2022-12-07T09:59:48.445Z,461.00
2022-12-07T10:00:48.446Z,462.00
2022-12-07T10:01:48.507Z,456.00
2022-12-07T10:02:48.456Z,464.00
2022-12-07T10:03:48.398Z,477.00
2022-12-07T10:04:48.462Z,465.00
2022-12-07T10:05:48.377Z,464.00
2022-12-07T10:06:48.390Z,469.00
2022-12-07T10:07:48.414Z,468.00
2022-12-07T10:08:48.392Z,474.00
2022-12-07T10:09:48.329Z,482.00
2022-12-07T10:10:48.353Z,495.00
2022-12-07T10:11:48.308Z,505.00
2022-12-07T10:12:48.327Z,516.00
2022-12-07T10:13:48.309Z,552.00
2022-12-07T10:15:06.934Z,610.00
2022-12-07T10:15:48.365Z,660.00
2022-12-07T10:16:48.316Z,640.00
2022-12-07T10:17:48.276Z,841.00
2022-12-07T10:18:48.266Z,742.00
2022-12-07T10:19:48.249Z,668.00
2022-12-07T10:20:48.234Z,552.00
2022-12-07T10:21:48.230Z,906.00
2022-12-07T10:22:48.208Z,1333.00
2022-12-07T10:23:48.187Z,1089.00
2022-12-07T10:24:48.219Z,1585.00
2022-12-07T10:25:48.204Z,1673.00
2022-12-07T10:26:48.169Z,1470.00
2022-12-07T10:27:48.155Z,1402.00
2022-12-07T10:28:48.184Z,1169.00
2022-12-07T10:29:48.139Z,1029.00
2022-12-07T10:30:48.139Z,922.00
2022-12-07T10:31:48.146Z,1093.00
2022-12-07T10:32:48.178Z,459.00
2022-12-07T10:33:48.151Z,702.00
2022-12-07T10:34:52.099Z,1104.00
2022-12-07T10:35:48.056Z,1142.00
2022-12-07T10:36:48.079Z,1110.00
2022-12-07T10:37:48.048Z,1046.00
2022-12-07T10:38:48.057Z,1231.00
2022-12-07T10:39:48.051Z,1009.00
2022-12-07T10:40:48.054Z,1004.00
2022-12-07T10:41:48.004Z,1194.00
2022-12-07T10:42:48.017Z,1301.00
2022-12-07T10:43:47.973Z,978.00
2022-12-07T10:44:48.074Z,1139.00
2022-12-07T10:46:03.282Z,1521.00
2022-12-07T10:46:48.091Z,1422.00
2022-12-07T10:47:47.943Z,1259.00
2022-12-07T10:48:47.959Z,1092.00
2022-12-07T10:49:47.918Z,1190.00
2022-12-07T10:50:47.994Z,1153.00
2022-12-07T10:51:47.895Z,1432.00
2022-12-07T10:52:47.901Z,1268.00
2022-12-07T10:53:47.879Z,1280.00
2022-12-07T10:54:47.885Z,931.00
2022-12-07T10:55:47.854Z,1369.00
2022-12-07T10:56:51.140Z,1195.00
2022-12-07T10:57:47.834Z,1335.00
2022-12-07T10:58:47.845Z,1118.00
2022-12-07T10:59:47.818Z,893.00
2022-12-07T11:00:47.840Z,1238.00
2022-12-07T11:01:47.834Z,1280.00
2022-12-07T11:02:47.820Z,1213.00
2022-12-07T11:03:47.778Z,839.00
2022-12-07T11:04:47.784Z,1116.00
2022-12-07T11:05:47.743Z,1488.00
2022-12-07T11:06:47.760Z,1655.00
2022-12-07T11:07:50.941Z,1661.00
2022-12-07T11:08:47.744Z,1400.00
2022-12-07T11:10:47.727Z,1001.00
2022-12-07T11:11:47.709Z,798.00
2022-12-07T11:12:47.734Z,1115.00
2022-12-07T11:13:47.659Z,908.00
2022-12-07T11:14:47.658Z,906.00
2022-12-07T11:15:47.653Z,1120.00
2022-12-07T11:16:47.676Z,917.00
2022-12-07T11:17:47.645Z,976.00
2022-12-07T11:18:47.623Z,877.00
2022-12-07T11:19:47.592Z,866.00
2022-12-07T11:20:47.600Z,1036.00
2022-12-07T11:21:47.575Z,1058.00
2022-12-07T11:22:47.565Z,704.00
2022-12-07T11:23:47.579Z,873.00
2022-12-07T11:24:47.561Z,846.00
2022-12-07T11:25:47.542Z,603.00
2022-12-07T11:26:47.536Z,512.00
2022-12-07T11:27:47.515Z,676.00
2022-12-07T11:28:47.558Z,609.00
2022-12-07T11:29:47.522Z,596.00
2022-12-07T11:30:47.516Z,622.00
2022-12-07T11:31:47.501Z,643.00
2022-12-07T11:32:47.468Z,660.00
2022-12-07T11:33:47.478Z,587.00
2022-12-07T11:34:47.447Z,456.00
2022-12-07T11:35:47.447Z,1349.00
2022-12-07T11:36:47.429Z,1218.00
2022-12-07T11:37:47.399Z,1130.00
2022-12-07T11:38:47.425Z,900.00
2022-12-07T11:39:47.382Z,657.00
2022-12-07T11:40:47.432Z,755.00
2022-12-07T11:41:47.442Z,817.00
2022-12-07T11:42:47.366Z,747.00
2022-12-07T11:43:47.346Z,939.00
2022-12-07T11:44:47.363Z,1181.00
2022-12-07T11:45:47.331Z,994.00
2022-12-07T11:46:47.379Z,1113.00
2022-12-07T11:47:47.308Z,1075.00
2022-12-07T11:48:47.321Z,1239.00
2022-12-07T11:49:47.401Z,1141.00
2022-12-07T11:50:47.286Z,932.00
2022-12-07T11:51:47.264Z,766.00
2022-12-07T11:52:47.255Z,626.00
2022-12-07T11:53:47.258Z,525.00
2022-12-07T11:54:47.240Z,526.00
2022-12-07T11:55:47.250Z,527.00
2022-12-07T11:56:47.287Z,549.00
2022-12-07T11:57:47.226Z,552.00
2022-12-07T11:58:47.235Z,550.00
2022-12-07T11:59:47.171Z,564.00
2022-12-07T12:00:47.235Z,605.00
2022-12-07T12:01:47.249Z,653.00
2022-12-07T12:02:47.236Z,681.00
2022-12-07T12:03:52.671Z,758.00
2022-12-07T12:04:47.131Z,824.00
2022-12-07T12:05:47.112Z,824.00
2022-12-07T12:06:47.336Z,724.00
2022-12-07T12:09:50.520Z,683.00
2022-12-07T12:10:47.074Z,661.00
2022-12-07T12:11:47.125Z,813.00
2022-12-07T12:14:48.524Z,1298.00
2022-12-07T12:16:41.573Z,1131.00
2022-12-07T12:17:42.467Z,1095.00
2022-12-07T12:18:42.450Z,1070.00
2022-12-07T12:19:42.422Z,1110.00
2022-12-07T12:20:42.417Z,1252.00
2022-12-07T12:21:42.439Z,1634.00
2022-12-07T12:22:42.411Z,1229.00
2022-12-07T12:23:42.413Z,862.00
2022-12-07T12:24:42.393Z,1053.00
2022-12-07T12:25:42.396Z,844.00
2022-12-07T12:26:42.376Z,850.00
2022-12-07T12:27:42.349Z,860.00
2022-12-07T12:28:48.455Z,1426.00
2022-12-07T12:29:42.338Z,1076.00
2022-12-07T12:30:42.328Z,1062.00
2022-12-07T12:31:42.521Z,1654.00
2022-12-07T12:32:42.298Z,1351.00
2022-12-07T12:33:42.267Z,1975.00
2022-12-07T12:34:49.837Z,1465.00
2022-12-07T12:35:42.255Z,1446.00
2022-12-07T12:36:42.308Z,1679.00
2022-12-07T12:37:42.237Z,1590.00
2022-12-07T12:38:42.230Z,1554.00
2022-12-07T12:39:42.225Z,1434.00
2022-12-07T12:40:47.084Z,1472.00
2022-12-07T12:41:42.262Z,1515.00
2022-12-07T12:42:42.229Z,1506.00
2022-12-07T12:43:42.180Z,1724.00
2022-12-07T12:44:42.189Z,1098.00
2022-12-07T12:45:42.251Z,567.00
2022-12-07T12:46:46.554Z,1232.00
2022-12-07T12:47:42.130Z,783.00
2022-12-07T12:48:42.128Z,1448.00
2022-12-07T12:49:42.177Z,1461.00
2022-12-07T12:50:42.118Z,814.00
2022-12-07T12:51:42.107Z,332.00
2022-12-07T12:52:45.896Z,650.00
2022-12-07T12:53:42.107Z,1777.00
2022-12-07T12:54:42.103Z,1886.00
2022-12-07T12:55:42.101Z,1688.00
2022-12-07T12:56:42.034Z,1581.00
2022-12-07T12:57:42.030Z,1313.00
2022-12-07T12:58:42.031Z,1293.00
2022-12-07T12:59:41.990Z,1171.00
2022-12-07T13:00:42.015Z,1083.00
2022-12-07T13:01:42.120Z,841.00
2022-12-07T13:02:42.729Z,842.00
2022-12-07T13:03:41.965Z,940.00
2022-12-07T13:04:41.977Z,984.00
2022-12-07T13:05:41.928Z,1143.00
2022-12-07T13:06:41.929Z,1048.00
2022-12-07T13:07:41.954Z,961.00
2022-12-07T13:08:41.947Z,928.00
2022-12-07T13:09:41.933Z,811.00
2022-12-07T13:10:41.892Z,751.00
2022-12-07T13:11:41.867Z,661.00
2022-12-07T13:12:41.870Z,673.00
2022-12-07T13:13:41.842Z,576.00
2022-12-07T13:14:41.899Z,774.00
2022-12-07T13:15:42.473Z,1130.00
2022-12-07T13:16:41.903Z,1150.00
2022-12-07T13:17:41.830Z,1808.00
2022-12-07T13:18:41.807Z,979.00
2022-12-07T13:19:41.778Z,2210.00
2022-12-07T13:20:41.820Z,1643.00
2022-12-07T13:21:41.764Z,1058.00
2022-12-07T13:22:41.761Z,619.00
2022-12-07T13:23:41.752Z,1932.00
2022-12-07T13:24:41.782Z,1344.00
2022-12-07T13:25:41.716Z,1130.00
2022-12-07T13:26:41.752Z,680.00
2022-12-07T13:27:41.712Z,563.00
2022-12-07T13:28:41.762Z,1110.00
2022-12-07T13:29:41.669Z,788.00
2022-12-07T13:30:41.718Z,518.00
2022-12-07T13:31:41.679Z,489.00
2022-12-07T13:32:41.664Z,494.00
2022-12-07T13:33:41.636Z,497.00
2022-12-07T13:34:41.672Z,511.00
2022-12-07T13:35:41.600Z,525.00
2022-12-07T13:36:41.631Z,494.00
2022-12-07T13:37:41.587Z,486.00
2022-12-07T13:38:41.595Z,548.00
2022-12-07T13:39:41.571Z,570.00
2022-12-07T13:40:41.595Z,672.00
2022-12-07T13:41:41.544Z,524.00
2022-12-07T13:42:41.558Z,767.00
2022-12-07T13:43:41.520Z,823.00
2022-12-07T13:44:42.452Z,1013.00
2022-12-07T13:45:41.548Z,883.00
2022-12-07T13:46:41.647Z,723.00
2022-12-07T13:47:41.486Z,1015.00
2022-12-07T13:48:41.489Z,884.00
2022-12-07T13:49:41.489Z,807.00
2022-12-07T13:50:41.502Z,826.00
2022-12-07T13:51:41.472Z,835.00
2022-12-07T13:52:41.445Z,909.00
2022-12-07T13:53:41.414Z,722.00
2022-12-07T13:54:41.427Z,846.00
2022-12-07T13:55:41.426Z,682.00
2022-12-07T13:56:41.409Z,709.00
2022-12-07T13:57:41.423Z,803.00
2022-12-07T13:58:41.391Z,741.00
2022-12-07T13:59:41.350Z,676.00
2022-12-07T14:00:41.362Z,551.00
2022-12-07T14:01:41.425Z,535.00
2022-12-07T14:02:45.745Z,504.00
2022-12-07T14:03:41.306Z,601.00
2022-12-07T14:04:41.331Z,606.00
2022-12-07T14:05:41.288Z,532.00
2022-12-07T14:06:41.302Z,591.00
2022-12-07T14:07:41.368Z,515.00
2022-12-07T14:08:41.293Z,590.00
2022-12-07T14:09:41.250Z,623.00
2022-12-07T14:10:41.243Z,528.00
2022-12-07T14:11:41.226Z,436.00
2022-12-07T14:12:41.251Z,398.00
2022-12-07T14:13:41.250Z,367.00
2022-12-07T14:14:41.223Z,369.00
2022-12-07T14:15:41.212Z,375.00
2022-12-07T14:16:41.230Z,376.00
2022-12-07T14:17:41.191Z,375.00
2022-12-07T14:18:41.212Z,374.00
2022-12-07T14:19:44.783Z,369.00
2022-12-07T14:20:41.152Z,361.00
2022-12-07T14:21:41.147Z,386.00
2022-12-07T14:22:41.138Z,367.00
2022-12-07T14:23:41.103Z,357.00
2022-12-07T14:24:41.153Z,338.00
2022-12-07T14:25:43.936Z,344.00
2022-12-07T14:26:41.121Z,390.00
2022-12-07T14:27:41.057Z,330.00
2022-12-07T14:28:41.066Z,273.00
2022-12-07T14:29:41.048Z,235.00
2022-12-07T14:30:41.069Z,193.00
2022-12-07T14:31:41.064Z,199.00
2022-12-07T14:32:41.066Z,187.00
2022-12-07T14:33:41.034Z,164.00
2022-12-07T14:34:41.026Z,147.00
2022-12-07T14:35:40.974Z,177.00
2022-12-07T14:36:40.989Z,169.00
2022-12-07T14:37:40.965Z,154.00
2022-12-07T14:38:40.955Z,128.00
2022-12-07T14:39:40.957Z,134.00
2022-12-07T14:40:40.952Z,112.00
2022-12-07T14:41:40.901Z,121.00
2022-12-07T14:42:40.923Z,116.00
2022-12-07T14:43:54.087Z,103.00
2022-12-07T14:44:40.914Z,108.00
2022-12-07T14:45:40.903Z,137.00
2022-12-07T14:46:41.612Z,131.00
2022-12-07T14:49:40.835Z,124.00
2022-12-07T14:53:24.980Z,134.00
2022-12-07T14:53:30.844Z,133.00
2022-12-07T14:54:29.877Z,129.00
2022-12-07T14:55:29.882Z,132.00
2022-12-07T14:56:29.851Z,136.00
2022-12-07T14:57:29.863Z,143.00
2022-12-07T14:58:29.908Z,153.00
2022-12-07T14:59:29.843Z,162.00
2022-12-07T15:00:29.832Z,169.00
2022-12-07T15:01:29.802Z,169.00
2022-12-07T15:02:29.789Z,169.00
2022-12-07T15:03:29.895Z,171.00
2022-12-07T15:04:29.839Z,168.00
2022-12-07T15:05:29.843Z,165.00
2022-12-07T15:06:29.736Z,152.00
2022-12-07T15:07:29.766Z,141.00
2022-12-07T15:08:29.912Z,134.00
2022-12-07T15:09:29.774Z,126.00
2022-12-07T15:10:29.708Z,112.00
2022-12-07T15:11:29.734Z,106.00
2022-12-07T15:12:29.687Z,95.00
2022-12-07T15:13:29.696Z,80.00
2022-12-07T15:14:29.676Z,73.00
2022-12-07T15:15:32.121Z,73.00
2022-12-07T15:16:40.632Z,73.00
2022-12-07T15:17:32.213Z,68.00
2022-12-07T15:18:29.609Z,61.00
2022-12-07T15:19:30.105Z,54.00
2022-12-07T15:20:29.641Z,44.00
2022-12-07T15:21:29.621Z,40.00
2022-12-07T15:22:33.622Z,41.00
2022-12-07T15:23:29.576Z,42.00
2022-12-07T15:24:29.553Z,40.00
2022-12-07T15:25:29.574Z,31.00
2022-12-07T15:26:29.546Z,26.00
2022-12-07T15:27:29.535Z,20.00
2022-12-07T15:28:29.558Z,20.00
2022-12-07T15:29:29.502Z,17.00
2022-12-07T15:30:29.509Z,17.00
2022-12-07T15:31:54.525Z,16.00
2022-12-07T15:32:29.707Z,12.00
2022-12-07T15:33:29.481Z,8.00
2022-12-07T15:34:34.779Z,7.00
2022-12-07T15:35:29.461Z,10.00
2022-12-07T15:36:29.435Z,10.00
2022-12-07T15:37:29.408Z,6.00
2022-12-07T15:39:05.180Z,4.00
2022-12-07T15:39:29.392Z,1.00
2022-12-07T15:40:29.422Z,2.00
2022-12-07T15:41:29.374Z,2.00
2022-12-07T15:42:29.439Z,0.00
2022-12-07T15:43:29.407Z,0.00
2022-12-07T15:44:31.266Z,0.00
2022-12-07T15:45:29.410Z,0.00
2022-12-07T15:46:29.409Z,1.00
2022-12-07T15:47:29.309Z,1.00
2022-12-07T15:48:29.894Z,1.00
2022-12-07T15:49:29.325Z,1.00
2022-12-07T15:50:29.308Z,1.00
2022-12-07T15:51:29.274Z,2.00
2022-12-07T15:52:29.269Z,2.00
2022-12-07T15:53:29.323Z,0.00
2022-12-07T15:54:29.247Z,1.00
2022-12-07T15:55:29.223Z,1.00
2022-12-07T15:56:29.240Z,1.00
2022-12-07T15:57:29.255Z,0.00
2022-12-07T15:58:29.264Z,0.00
2022-12-07T15:59:29.233Z,0.00
2022-12-07T16:00:29.239Z,0.00
2022-12-07T16:01:29.279Z,0.00
2022-12-07T16:02:29.295Z,0.00
2022-12-07T16:03:29.280Z,0.00
2022-12-07T16:04:29.193Z,0.00
2022-12-07T16:05:29.164Z,0.00
2022-12-07T16:06:29.176Z,0.00
2022-12-07T16:07:29.165Z,0.00
2022-12-07T16:08:33.428Z,0.00
2022-12-07T16:09:29.132Z,0.00
2022-12-07T16:10:29.142Z,0.00
2022-12-07T16:11:29.106Z,0.00
2022-12-07T16:12:29.113Z,0.00
2022-12-07T16:13:29.102Z,0.00
2022-12-07T16:14:29.087Z,0.00
2022-12-07T16:15:29.065Z,0.00
2022-12-07T16:16:29.153Z,0.00
2022-12-07T16:17:29.039Z,0.00
2022-12-07T16:18:29.057Z,0.00
2022-12-07T16:19:29.037Z,0.00
2022-12-07T16:20:29.051Z,0.00
2022-12-07T16:21:28.999Z,0.00
2022-12-07T16:22:29.010Z,0.00
2022-12-07T16:23:29.001Z,0.00
2022-12-07T16:24:29.000Z,0.00
2022-12-07T16:25:28.983Z,0.00
2022-12-07T16:26:28.951Z,0.00
2022-12-07T16:27:28.932Z,0.00
2022-12-07T16:28:28.959Z,0.00
2022-12-07T16:29:28.916Z,0.00
2022-12-07T16:30:28.969Z,0.00
2022-12-07T16:31:29.058Z,0.00
2022-12-07T16:32:28.905Z,0.00
2022-12-07T16:33:28.873Z,0.00
2022-12-07T16:34:28.915Z,0.00
2022-12-07T16:35:28.849Z,0.00
2022-12-07T16:37:02.009Z,0.00
2022-12-07T16:37:28.832Z,0.00
2022-12-07T16:38:28.822Z,0.00
2022-12-07T16:39:28.803Z,0.00
2022-12-07T16:40:28.828Z,0.00
2022-12-07T16:41:28.852Z,0.00
2022-12-07T16:42:28.810Z,0.00
2022-12-07T16:43:28.774Z,0.00